Flight Track Log - Related Links

Times and Time Zones

All times are in EDT time to prevent confusion due to time zone crossing. See the N417JT flight status page for this flight to view local times or setup timezone preferences in your user account.

Time Position Orientation Groundspeed Altitude Reporting Facility
EDT Latitude Longitude Course Direction KTS MPH feet Rate Location/Type
Sun 03:53:50 PM 29.7219 -82.2253 322° Northwest 121 139 1,200  Level Jacksonville Center
Sun 03:54:57 PM 29.7431 -82.2444 322° Northwest 163 188 1,800 567 Climbing Jacksonville Center
Sun 03:55:57 PM 29.7161 -82.2875 234° Southwest 168 193 2,400 645 Climbing Jacksonville Center
Sun 03:56:58 PM 29.6847 -82.3258 227° Southwest 153 176 3,100 571 Climbing Jacksonville Center
Sun 03:59:06 PM 29.6247 -82.4003 227° Southwest 145 167 4,200 511 Climbing Jacksonville Center
Sun 04:00:06 PM 29.5914 -82.4292 217° Southwest 153 176 4,700 365 Climbing Jacksonville Center
Sun 04:01:01 PM 29.5600 -82.4581 219° Southwest 159 183 4,900 103 Climbing Jacksonville Center
Sun 04:02:02 PM 29.5206 -82.4869 213° Southwest 165 190 4,900  Level Jacksonville Center
Sun 04:04:59 PM 29.4122 -82.5708 186° South 156 180 4,900  Level Jacksonville Center
Sun 04:06:52 PM 29.3425 -82.6081 184° South 168 193 4,900  Level Miami Center
Sun 04:07:53 PM 29.2986 -82.6067 178° South 163 188 4,900  Level Miami Center
Sun 04:08:00 PM 29.3026 -82.5795 184° South  Level Estimated
Sun 04:08:55 PM 29.2553 -82.6053 178° South 159 183 4,900  Level Miami Center
Sun 04:09:57 PM 29.2125 -82.6053 180° South 158 182 4,900  Level Miami Center
Sun 04:10:58 PM 29.1678 -82.6067 182° South 158 182 4,900  Level Miami Center
Sun 04:12:00 PM 29.1596 -82.5324 186° South  Level Estimated
Sun 04:12:05 PM 29.1097 -82.6122 185° South 161 185 4,900  Level Jacksonville Center
Sun 04:14:04 PM 29.0242 -82.6083 178° South 161 185 5,000 33 Climbing Miami Center
Sun 04:15:07 PM 28.9739 -82.6103 182° South 150 173 5,000  Level Jacksonville Center
Sun 04:16:14 PM 28.9258 -82.6078 177° South 154 177 5,000  Level Jacksonville Center
Sun 04:17:15 PM 28.8822 -82.6081 180° South 160 184 5,000  Level Jacksonville Center
Sun 04:19:12 PM 28.7986 -82.6192 187° South 159 183 5,000  Level Miami Center
Sun 04:20:14 PM 28.7547 -82.6347 197° South 160 184 5,000  Level Miami Center
Sun 04:21:47 PM 28.6833 -82.6500 191° South 162 186 5,000 -211 Level Tampa TRACON
Sun 04:23:05 PM 28.6333 -82.6833 210° Southwest 161 185 4,400 -429 Descending Tampa TRACON
Sun 04:24:21 PM 28.5817 -82.6911 188° South 163 188 3,900 -482 Descending Miami Center
Sun 04:25:22 PM 28.5306 -82.7092 197° South 163 188 3,300 -462 Descending Miami Center
Sun 04:26:05 PM 28.5000 -82.7167 192° South 160 184 3,100 -175 Descending Tampa TRACON
Sun 04:27:05 PM 28.4500 -82.7333 196° South 153 176 3,000 -59 Descending Tampa TRACON
Sun 04:27:47 PM 28.4333 -82.7500 221° Southwest 152 175 3,000  Level Tampa TRACON
Sun 04:28:59 PM 28.3833 -82.7667 196° South 148 170 3,000  Level Tampa TRACON
Sun 04:29:29 PM 28.3683 -82.7658 177° South 152 175 3,000  Level Miami Center
Sun 04:29:59 PM 28.3500 -82.7833 220° Southwest 148 170 3,000  Level Tampa TRACON
Sun 04:30:59 PM 28.3000 -82.7833 180° South 152 175 3,000  Level Tampa TRACON
Sun 04:31:53 PM 28.2667 -82.8000 204° Southwest 153 176 3,000  Level Tampa TRACON
Sun 04:32:53 PM 28.2167 -82.8000 180° South 155 178 3,000  Level Tampa TRACON
Sun 04:34:37 PM 28.1514 -82.7981 178° South 155 178 3,000  Level Miami Center
Sun 04:35:39 PM 28.1081 -82.7972 179° South 155 178 3,000 -95 Level Miami Center
Sun 04:37:47 PM 28.0167 -82.8000 182° South 154 177 2,700 -128 Descending Tampa TRACON
Sun 04:38:47 PM 27.9667 -82.7833 164° South 155 178 2,600 -53 Descending Tampa TRACON
Sun 04:39:41 PM 27.9333 -82.7833 180° South 151 174 2,600 -53 Level Tampa TRACON
Sun 04:40:41 PM 27.9000 -82.7667 156° South 151 174 2,500 -480 Descending Tampa TRACON
Sun 04:42:11 PM 27.8667 -82.7167 127° Southeast 136 157 1,400 -792 Descending Tampa TRACON
Sun 04:43:05 PM 27.8833 -82.6833 60° Northeast 122 140 600 -889 Descending Tampa TRACON
Sun 04:47:00 PM 27.9100 -82.6875 352° North  Level Estimated

Login

Don't have an account? Register now (free) for customized features, flight alerts, and more!